Time;durP1;ratioP1;P1;durP2;ratioP2;P2;SDS_P1;SDS_P2;PMS_P1;PMS_P2;Temp;Humidity;BMP_temperature;BMP_pressure;BME280_temperature;BME280_humidity;BME280_pressure;Samples;Min_cycle;Max_cycle;Signal;HPM_P1;HPM_P2
2022/09/17 00:00:51;;;;;;;0.25;0.20;;;10.60;96.70;;;;;;6085252;23;20462;-74
2022/09/17 00:03:18;;;;;;;0.43;0.30;;;10.50;96.90;;;;;;6061562;23;20054;-73
2022/09/17 00:05:45;;;;;;;0.90;0.40;;;10.50;96.80;;;;;;6082119;23;20203;-73
2022/09/17 00:08:13;;;;;;;2.33;0.77;;;10.50;96.90;;;;;;6110088;23;20088;-73
2022/09/17 00:10:41;;;;;;;1.35;0.80;;;10.50;97.00;;;;;;6086080;23;20024;-75
2022/09/17 00:13:08;;;;;;;1.15;0.50;;;10.50;97.20;;;;;;6086004;23;20386;-73
2022/09/17 00:15:42;;;;;;;0.85;0.50;;;10.50;97.10;;;;;;6084510;23;20463;-75
2022/09/17 00:18:10;;;;;;;0.32;0.32;;;10.50;97.30;;;;;;6061737;23;20032;-73
2022/09/17 00:20:41;;;;;;;0.30;0.20;;;10.50;97.20;;;;;;6110472;23;20022;-75
2022/09/17 00:23:08;;;;;;;0.70;0.40;;;10.40;97.30;;;;;;6060772;23;20080;-75
2022/09/17 00:25:39;;;;;;;0.55;0.22;;;10.40;97.30;;;;;;6060973;23;20339;-75
2022/09/17 00:28:05;;;;;;;0.57;0.40;;;10.30;97.70;;;;;;6085370;23;20109;-75
2022/09/17 00:30:32;;;;;;;0.82;0.40;;;10.30;97.60;;;;;;6084454;23;20022;-75
2022/09/17 00:32:59;;;;;;;0.30;0.30;;;10.30;97.70;;;;;;6084776;23;20028;-75
2022/09/17 00:35:26;;;;;;;0.77;0.30;;;10.20;97.60;;;;;;6084233;23;20454;-76
2022/09/17 00:37:53;;;;;;;0.70;0.30;;;10.20;97.90;;;;;;6084652;23;20025;-75
2022/09/17 00:40:20;;;;;;;0.65;0.32;;;10.20;98.10;;;;;;6085832;23;20324;-75
2022/09/17 00:42:47;;;;;;;0.40;0.40;;;10.10;97.90;;;;;;6061918;23;20115;-75
2022/09/17 00:45:14;;;;;;;1.25;0.57;;;10.10;98.20;;;;;;6084585;23;20018;-73
2022/09/17 00:47:57;;;;;;;1.60;0.60;;;10.10;97.90;;;;;;6084186;23;20469;-74
2022/09/17 00:50:38;;;;;;;0.40;0.30;;;10.10;97.90;;;;;;6111103;23;20100;-74
2022/09/17 00:53:10;;;;;;;0.70;0.43;;;10.10;98.20;;;;;;6087394;23;20512;-74
2022/09/17 00:55:56;;;;;;;2.00;0.40;;;10.00;98.10;;;;;;6085464;23;20089;-74
2022/09/17 00:58:23;;;;;;;0.95;0.40;;;10.00;98.10;;;;;;6091446;23;20029;-74
2022/09/17 01:00:49;;;;;;;2.83;0.70;;;10.20;97.70;;;;;;6062918;23;20029;-75
2022/09/17 01:03:16;;;;;;;1.52;0.57;;;10.20;97.80;;;;;;6113178;23;20096;-74
2022/09/17 01:06:12;;;;;;;1.08;0.70;;;10.20;98.00;;;;;;6086222;23;20097;-74
2022/09/17 01:08:54;;;;;;;0.38;0.30;;;10.20;98.10;;;;;;6092015;23;20022;-74
2022/09/17 01:11:52;;;;;;;0.22;0.22;;;10.20;98.20;;;;;;6113492;23;20022;-74
2022/09/17 01:14:39;;;;;;;0.60;0.35;;;10.10;98.50;;;;;;6087482;23;20026;-75
2022/09/17 01:17:29;;;;;;;1.17;0.30;;;10.10;98.50;;;;;;6086212;23;20359;-74
2022/09/17 01:20:18;;;;;;;1.17;0.20;;;10.10;98.60;;;;;;6087016;23;20018;-74
2022/09/17 01:23:06;;;;;;;0.52;0.28;;;10.00;98.80;;;;;;6089429;23;20022;-74
2022/09/17 01:26:01;;;;;;;0.63;0.35;;;10.00;98.80;;;;;;6112536;23;20466;-74
2022/09/17 01:28:49;;;;;;;0.28;0.20;;;10.00;99.00;;;;;;6113076;23;20510;-74
2022/09/17 01:31:47;;;;;;;0.45;0.20;;;10.00;99.40;;;;;;6113415;23;20021;-74
2022/09/17 01:34:26;;;;;;;1.38;0.43;;;9.90;99.60;;;;;;6049320;23;20024;-74
2022/09/17 01:37:03;;;;;;;0.80;0.40;;;9.90;99.40;;;;;;6089218;23;20041;-74
2022/09/17 01:39:52;;;;;;;0.93;0.30;;;9.90;99.50;;;;;;6090419;23;20030;-75
2022/09/17 01:42:46;;;;;;;0.52;0.20;;;9.80;99.70;;;;;;6065241;23;20060;-74
2022/09/17 01:45:39;;;;;;;0.70;0.35;;;9.70;99.70;;;;;;6086490;23;20346;-74
2022/09/17 01:48:16;;;;;;;0.45;0.35;;;9.70;99.90;;;;;;6068837;23;20018;-75
2022/09/17 01:50:56;;;;;;;0.90;0.20;;;9.70;99.90;;;;;;6114623;23;20582;-74
2022/09/17 01:53:25;;;;;;;0.57;0.20;;;9.60;99.90;;;;;;6089330;23;20022;-74
2022/09/17 01:55:52;;;;;;;0.32;0.20;;;9.50;99.90;;;;;;6089979;23;20033;-74
2022/09/17 01:58:25;;;;;;;0.52;0.13;;;9.50;99.90;;;;;;6065707;23;20026;-74
2022/09/17 02:00:56;;;;;;;0.35;0.20;;;9.40;99.90;;;;;;6088999;23;20022;-74
2022/09/17 02:03:29;;;;;;;1.05;0.13;;;9.40;99.90;;;;;;6089397;23;20084;-74
2022/09/17 02:06:10;;;;;;;0.43;0.22;;;9.40;99.90;;;;;;6089165;23;20018;-74
2022/09/17 02:08:53;;;;;;;0.20;0.20;;;9.30;99.90;;;;;;6089374;23;20032;-74
2022/09/17 02:11:20;;;;;;;0.15;0.15;;;9.30;99.90;;;;;;6065969;23;20097;-74
2022/09/17 02:13:53;;;;;;;0.73;0.30;;;9.30;99.90;;;;;;6066120;23;20041;-74
2022/09/17 02:16:27;;;;;;;0.52;0.20;;;9.20;99.90;;;;;;6064753;23;20026;-74
2022/09/17 02:19:19;;;;;;;0.47;0.20;;;9.20;99.90;;;;;;6065805;23;20029;-74
2022/09/17 02:21:52;;;;;;;0.50;0.30;;;9.10;99.90;;;;;;6076461;23;20392;-74
2022/09/17 02:24:30;;;;;;;0.30;0.30;;;9.00;99.90;;;;;;6090329;23;20109;-74
2022/09/17 02:27:02;;;;;;;0.32;0.20;;;9.00;99.90;;;;;;6089728;23;20018;-74
2022/09/17 02:29:35;;;;;;;0.20;0.20;;;8.90;99.90;;;;;;6089093;23;20025;-74
2022/09/17 02:32:02;;;;;;;0.88;0.30;;;8.80;99.90;;;;;;6065060;23;20028;-74
2022/09/17 02:34:29;;;;;;;0.10;0.10;;;8.80;99.90;;;;;;6088038;23;20030;-74
2022/09/17 02:36:57;;;;;;;0.20;0.20;;;8.80;99.90;;;;;;6089092;23;20022;-74
2022/09/17 02:39:24;;;;;;;0.20;0.20;;;8.70;99.90;;;;;;6089825;23;20076;-74
2022/09/17 02:41:55;;;;;;;0.17;0.15;;;8.70;99.90;;;;;;6089557;23;20049;-74
2022/09/17 02:44:37;;;;;;;0.10;0.10;;;8.60;99.90;;;;;;6089645;23;20700;-74
2022/09/17 02:47:33;;;;;;;0.10;0.10;;;8.60;99.90;;;;;;6088490;23;20058;-74
2022/09/17 02:50:31;;;;;;;0.43;0.20;;;8.50;99.90;;;;;;6109515;23;20029;-74
2022/09/17 02:53:22;;;;;;;1.02;0.40;;;8.50;99.90;;;;;;6115159;23;20041;-74
2022/09/17 02:56:00;;;;;;;0.47;0.30;;;8.40;99.90;;;;;;6115016;23;20022;-74
2022/09/17 02:58:33;;;;;;;0.40;0.20;;;8.30;99.90;;;;;;6090447;23;20044;-74
2022/09/17 03:01:03;;;;;;;1.45;0.63;;;8.30;99.90;;;;;;6089039;23;20022;-74
2022/09/17 03:03:34;;;;;;;0.30;0.30;;;8.30;99.90;;;;;;6088416;23;20030;-74
2022/09/17 03:06:01;;;;;;;0.52;0.47;;;8.20;99.90;;;;;;6065423;23;20029;-74
2022/09/17 03:08:29;;;;;;;0.50;0.40;;;8.20;99.90;;;;;;6089230;23;20037;-75
2022/09/17 03:10:56;;;;;;;1.00;0.50;;;8.10;99.90;;;;;;6089679;23;20044;-75
2022/09/17 03:13:23;;;;;;;0.68;0.40;;;8.10;99.90;;;;;;6065983;23;20026;-74
2022/09/17 03:15:49;;;;;;;1.02;0.50;;;8.10;99.90;;;;;;6088895;23;20081;-74
2022/09/17 03:18:16;;;;;;;1.05;0.52;;;8.00;99.90;;;;;;6115961;23;20081;-74
2022/09/17 03:20:43;;;;;;;2.20;0.85;;;8.00;99.90;;;;;;6116056;23;20022;-74
2022/09/17 03:23:09;;;;;;;0.80;0.50;;;8.00;99.90;;;;;;6090817;23;20037;-74
2022/09/17 03:25:36;;;;;;;0.70;0.30;;;8.00;99.90;;;;;;6117033;23;20041;-74
2022/09/17 03:28:03;;;;;;;1.70;0.32;;;7.90;99.90;;;;;;6117058;23;20022;-74
2022/09/17 03:30:29;;;;;;;0.47;0.40;;;7.90;99.90;;;;;;6090649;23;20036;-74
2022/09/17 03:32:56;;;;;;;0.70;0.50;;;7.80;99.90;;;;;;6090320;23;20454;-74
2022/09/17 03:35:23;;;;;;;0.98;0.55;;;7.80;99.90;;;;;;6116391;23;20098;-74
2022/09/17 03:37:50;;;;;;;0.30;0.30;;;7.80;99.90;;;;;;6091141;23;20513;-74
2022/09/17 03:40:17;;;;;;;0.50;0.40;;;7.80;99.90;;;;;;6067387;23;20459;-74
2022/09/17 03:42:44;;;;;;;0.68;0.40;;;7.80;99.90;;;;;;6117119;23;20026;-74
2022/09/17 03:45:11;;;;;;;0.88;0.35;;;7.70;99.90;;;;;;6116582;23;20041;-75
2022/09/17 03:47:38;;;;;;;0.40;0.40;;;7.70;99.90;;;;;;6066106;23;20101;-74
2022/09/17 03:50:05;;;;;;;0.85;0.47;;;7.60;99.90;;;;;;6090229;23;20022;-74
2022/09/17 03:52:31;;;;;;;0.90;0.30;;;7.60;99.90;;;;;;6090649;23;20021;-74
2022/09/17 03:54:58;;;;;;;0.60;0.40;;;7.60;99.90;;;;;;6090844;23;20026;-74
2022/09/17 03:57:25;;;;;;;0.57;0.30;;;7.50;99.90;;;;;;6067368;23;20052;-75
2022/09/17 03:59:52;;;;;;;0.85;0.50;;;7.50;99.90;;;;;;6090983;23;20022;-74
2022/09/17 04:02:18;;;;;;;0.57;0.30;;;7.50;99.90;;;;;;6089735;23;20022;-74
2022/09/17 04:04:45;;;;;;;0.82;0.50;;;7.40;99.90;;;;;;6089851;23;20022;-74
2022/09/17 04:07:12;;;;;;;0.93;0.40;;;7.40;99.90;;;;;;6116467;23;20025;-74
2022/09/17 04:09:39;;;;;;;0.38;0.30;;;7.40;99.90;;;;;;6117138;23;20029;-74
2022/09/17 04:12:05;;;;;;;0.35;0.20;;;7.40;99.90;;;;;;6066583;23;20343;-74
2022/09/17 04:14:32;;;;;;;0.55;0.25;;;7.40;99.90;;;;;;6089700;23;20653;-74
2022/09/17 04:16:59;;;;;;;0.40;0.20;;;7.30;99.90;;;;;;6115541;23;20032;-75
2022/09/17 04:19:25;;;;;;;0.40;0.38;;;7.30;99.90;;;;;;6115819;23;20025;-74
2022/09/17 04:21:52;;;;;;;0.15;0.15;;;7.30;99.90;;;;;;6066717;23;20038;-74
2022/09/17 04:24:19;;;;;;;0.10;0.10;;;7.30;99.90;;;;;;6089900;23;20057;-74
2022/09/17 04:26:45;;;;;;;0.35;0.25;;;7.20;99.90;;;;;;6090253;23;20116;-74
2022/09/17 04:29:12;;;;;;;0.30;0.30;;;7.20;99.90;;;;;;6090310;23;20037;-74
2022/09/17 04:31:39;;;;;;;0.88;0.40;;;7.20;99.90;;;;;;6089414;23;20022;-74
2022/09/17 04:34:06;;;;;;;0.32;0.30;;;7.10;99.90;;;;;;6116046;23;20026;-74
2022/09/17 04:36:32;;;;;;;0.30;0.30;;;7.10;99.90;;;;;;6089264;23;20098;-74
2022/09/17 04:38:59;;;;;;;0.75;0.40;;;7.10;99.90;;;;;;6090572;23;20026;-74
2022/09/17 04:41:26;;;;;;;0.80;0.40;;;7.10;99.90;;;;;;6115777;23;20470;-73
2022/09/17 04:43:52;;;;;;;2.03;0.50;;;7.10;99.90;;;;;;6090401;23;20034;-74
2022/09/17 04:46:19;;;;;;;0.30;0.30;;;7.10;99.90;;;;;;6115398;23;20022;-74
2022/09/17 04:48:46;;;;;;;0.52;0.40;;;7.10;99.90;;;;;;6115507;23;20088;-75
2022/09/17 04:51:13;;;;;;;1.25;0.40;;;7.10;99.90;;;;;;6115951;23;20036;-74
2022/09/17 04:53:39;;;;;;;0.50;0.38;;;7.00;99.90;;;;;;6090124;23;20591;-74
2022/09/17 04:56:06;;;;;;;0.20;0.20;;;7.00;99.90;;;;;;6090114;23;20038;-73
2022/09/17 04:58:33;;;;;;;0.88;0.30;;;7.00;99.90;;;;;;6116257;23;20036;-74
2022/09/17 05:00:59;;;;;;;0.20;0.20;;;7.00;99.90;;;;;;6089363;23;20018;-74
2022/09/17 05:03:26;;;;;;;0.32;0.30;;;7.00;99.90;;;;;;6113220;23;20033;-73
2022/09/17 05:05:53;;;;;;;0.70;0.40;;;6.90;99.90;;;;;;6087894;23;20105;-74
2022/09/17 05:08:22;;;;;;;0.63;0.30;;;6.90;99.90;;;;;;6088048;23;20022;-74
2022/09/17 05:10:50;;;;;;;0.77;0.50;;;6.90;99.90;;;;;;6088246;23;20045;-74
2022/09/17 05:13:17;;;;;;;0.47;0.43;;;6.90;99.90;;;;;;6087705;23;20105;-74
2022/09/17 05:15:44;;;;;;;0.22;0.20;;;6.80;99.90;;;;;;6087113;23;20109;-74
2022/09/17 05:18:11;;;;;;;0.57;0.30;;;6.80;99.90;;;;;;6063440;23;20029;-73
2022/09/17 05:20:38;;;;;;;0.60;0.35;;;6.80;99.90;;;;;;6063671;23;20033;-73
2022/09/17 05:23:05;;;;;;;0.45;0.30;;;6.80;99.90;;;;;;6066227;23;20018;-73
2022/09/17 05:25:31;;;;;;;0.57;0.30;;;6.80;99.90;;;;;;6090539;23;20092;-73
2022/09/17 05:28:00;;;;;;;1.48;0.52;;;6.80;99.90;;;;;;6087798;23;20032;-75
2022/09/17 05:30:26;;;;;;;0.70;0.40;;;6.70;99.90;;;;;;6086559;23;20227;-73
2022/09/17 05:33:03;;;;;;;0.77;0.50;;;6.70;99.90;;;;;;6089283;23;20093;-75
2022/09/17 05:35:31;;;;;;;0.73;0.50;;;6.70;99.90;;;;;;6089665;23;20029;-76
2022/09/17 05:37:59;;;;;;;0.70;0.40;;;6.70;99.90;;;;;;6086571;23;20377;-76
2022/09/17 05:40:26;;;;;;;0.65;0.40;;;6.70;99.90;;;;;;6087421;23;20022;-76
2022/09/17 05:43:00;;;;;;;1.30;0.60;;;6.70;99.90;;;;;;6043654;23;20024;-75
2022/09/17 05:45:27;;;;;;;0.93;0.55;;;6.60;99.90;;;;;;6086521;23;20021;-75
2022/09/17 05:47:55;;;;;;;1.27;0.70;;;6.70;99.90;;;;;;6086645;23;20048;-75
2022/09/17 05:50:22;;;;;;;1.10;0.52;;;6.70;99.90;;;;;;6088552;23;20047;-75
2022/09/17 05:52:50;;;;;;;0.52;0.30;;;6.70;99.90;;;;;;6089004;23;20096;-75
2022/09/17 05:55:17;;;;;;;0.40;0.40;;;6.70;99.90;;;;;;6089613;23;20044;-75
2022/09/17 05:57:44;;;;;;;0.88;0.40;;;6.70;99.90;;;;;;6090327;23;20839;-75
2022/09/17 06:00:11;;;;;;;1.73;0.40;;;6.70;99.90;;;;;;6089941;23;20025;-75
2022/09/17 06:02:38;;;;;;;0.65;0.40;;;6.70;99.90;;;;;;6084248;23;20096;-75
2022/09/17 06:05:05;;;;;;;1.60;0.45;;;6.70;99.90;;;;;;6085389;23;20022;-75
2022/09/17 06:07:35;;;;;;;0.88;0.73;;;6.70;99.90;;;;;;6086946;23;20029;-75
2022/09/17 06:10:03;;;;;;;0.77;0.50;;;6.70;99.90;;;;;;6090379;23;20029;-75
2022/09/17 06:12:30;;;;;;;0.40;0.30;;;6.80;99.90;;;;;;6065600;23;20022;-75
2022/09/17 06:14:56;;;;;;;0.43;0.30;;;6.80;99.90;;;;;;6086199;23;20021;-75
2022/09/17 06:17:23;;;;;;;0.70;0.32;;;6.80;99.90;;;;;;6084424;23;20334;-76
2022/09/17 06:19:50;;;;;;;0.20;0.20;;;6.80;99.90;;;;;;6061185;23;20081;-76
2022/09/17 06:22:18;;;;;;;0.47;0.30;;;6.90;99.90;;;;;;6112173;23;20022;-74
2022/09/17 06:24:45;;;;;;;0.30;0.30;;;6.90;99.90;;;;;;6111031;23;20022;-75
2022/09/17 06:27:12;;;;;;;0.40;0.25;;;6.90;99.90;;;;;;6111933;23;20030;-75
2022/09/17 06:29:39;;;;;;;0.32;0.30;;;7.00;99.90;;;;;;6112658;23;20097;-75
2022/09/17 06:32:09;;;;;;;1.02;0.40;;;7.00;99.90;;;;;;6088175;23;20089;-75
2022/09/17 06:34:36;;;;;;;1.20;0.70;;;7.00;99.90;;;;;;6085085;23;20037;-75
2022/09/17 06:37:03;;;;;;;0.88;0.70;;;7.10;99.90;;;;;;6082258;23;20026;-75
2022/09/17 06:39:30;;;;;;;1.15;0.57;;;7.10;99.90;;;;;;6109726;23;20121;-75
2022/09/17 06:41:57;;;;;;;0.75;0.50;;;7.20;99.90;;;;;;6082118;23;20018;-75
2022/09/17 06:44:23;;;;;;;0.45;0.43;;;7.20;99.90;;;;;;6082262;23;20052;-75
2022/09/17 06:46:50;;;;;;;0.95;0.47;;;7.20;99.90;;;;;;6057966;23;20022;-75
2022/09/17 06:49:18;;;;;;;1.10;0.65;;;7.30;99.90;;;;;;6058917;23;20026;-74
2022/09/17 06:51:44;;;;;;;0.55;0.40;;;7.40;99.90;;;;;;6059718;23;20025;-75
2022/09/17 06:54:11;;;;;;;0.95;0.43;;;7.40;99.90;;;;;;6085362;23;20022;-75
2022/09/17 06:56:38;;;;;;;0.55;0.40;;;7.50;99.90;;;;;;6084714;23;20026;-74
2022/09/17 06:59:04;;;;;;;1.58;0.43;;;7.50;99.90;;;;;;6084096;23;20033;-75
2022/09/17 07:01:31;;;;;;;1.00;0.50;;;7.60;99.90;;;;;;6082306;23;20026;-75
2022/09/17 07:03:58;;;;;;;1.25;0.50;;;7.70;99.90;;;;;;6082969;23;20033;-75
2022/09/17 07:06:25;;;;;;;0.63;0.40;;;7.70;99.90;;;;;;6110222;23;20044;-74
2022/09/17 07:08:52;;;;;;;2.22;0.88;;;7.80;99.90;;;;;;6083448;23;20362;-75
2022/09/17 07:11:18;;;;;;;0.73;0.40;;;7.90;99.90;;;;;;6083875;23;20030;-75
2022/09/17 07:13:45;;;;;;;0.80;0.60;;;8.00;99.90;;;;;;6060750;23;20026;-75
2022/09/17 07:16:12;;;;;;;0.70;0.45;;;8.10;99.90;;;;;;6086218;23;20242;-75
2022/09/17 07:18:39;;;;;;;1.45;0.60;;;8.30;99.90;;;;;;6060408;23;20061;-75
2022/09/17 07:21:05;;;;;;;0.93;0.63;;;8.40;99.90;;;;;;6110957;23;20057;-75
2022/09/17 07:23:33;;;;;;;0.57;0.50;;;8.50;99.90;;;;;;6084822;23;20125;-75
2022/09/17 07:26:11;;;;;;;1.42;0.85;;;8.60;99.90;;;;;;6059801;23;20061;-75
2022/09/17 07:28:38;;;;;;;0.68;0.40;;;8.70;99.90;;;;;;6083840;23;20025;-75
2022/09/17 07:31:06;;;;;;;0.60;0.50;;;8.80;99.90;;;;;;6109611;23;20414;-75
2022/09/17 07:33:36;;;;;;;1.70;0.82;;;8.80;99.90;;;;;;6083520;23;20113;-74
2022/09/17 07:36:05;;;;;;;1.23;0.68;;;8.90;99.90;;;;;;6058586;23;20022;-74
2022/09/17 07:38:32;;;;;;;0.90;0.68;;;9.00;99.90;;;;;;6084294;23;20552;-75
2022/09/17 07:41:01;;;;;;;1.33;0.95;;;9.10;99.90;;;;;;6085916;23;20021;-74
2022/09/17 07:43:29;;;;;;;1.27;0.70;;;9.20;99.90;;;;;;6084836;23;20131;-74
2022/09/17 07:45:57;;;;;;;1.60;0.60;;;9.30;99.90;;;;;;6084727;23;20057;-75
2022/09/17 07:48:23;;;;;;;1.52;0.60;;;9.30;99.90;;;;;;6084704;23;20053;-75
2022/09/17 07:50:50;;;;;;;2.78;1.50;;;9.50;99.90;;;;;;6084372;23;20354;-74
2022/09/17 07:53:17;;;;;;;2.28;0.90;;;9.50;99.90;;;;;;6061003;23;20192;-75
2022/09/17 07:55:59;;;;;;;1.60;1.00;;;9.60;99.90;;;;;;6084748;23;20033;-74
2022/09/17 07:58:31;;;;;;;1.98;0.93;;;9.70;99.90;;;;;;6060730;23;20036;-75
2022/09/17 08:01:02;;;;;;;1.75;0.80;;;9.70;99.90;;;;;;6084395;23;20025;-74
2022/09/17 08:03:29;;;;;;;1.10;0.73;;;9.80;99.90;;;;;;6084393;23;20081;-74
2022/09/17 08:06:05;;;;;;;1.35;0.60;;;9.90;99.90;;;;;;6037331;23;20320;-74
2022/09/17 08:08:32;;;;;;;0.57;0.50;;;10.00;99.90;;;;;;6110556;23;20026;-74
2022/09/17 08:11:04;;;;;;;1.10;0.70;;;10.00;99.90;;;;;;6085394;23;20034;-74
2022/09/17 08:13:31;;;;;;;3.42;0.90;;;10.10;99.90;;;;;;6061173;23;20068;-74
2022/09/17 08:16:14;;;;;;;1.30;0.68;;;10.20;99.90;;;;;;6085135;23;20030;-74
2022/09/17 08:18:42;;;;;;;0.43;0.40;;;10.30;99.90;;;;;;6086062;23;20535;-74
2022/09/17 08:21:11;;;;;;;1.23;0.70;;;10.40;99.90;;;;;;6060049;23;20045;-74
2022/09/17 08:23:38;;;;;;;2.05;0.90;;;10.50;99.90;;;;;;6083858;23;20105;-74
2022/09/17 08:26:07;;;;;;;1.90;1.00;;;10.60;99.90;;;;;;6085199;23;20022;-74
2022/09/17 08:28:34;;;;;;;2.75;0.95;;;10.70;99.90;;;;;;6084918;23;20037;-75
2022/09/17 08:31:02;;;;;;;1.48;0.70;;;10.80;99.90;;;;;;6060910;23;20026;-74
2022/09/17 08:33:33;;;;;;;1.15;0.90;;;10.90;99.90;;;;;;6084058;23;20026;-74
2022/09/17 08:36:00;;;;;;;1.55;0.60;;;11.10;99.90;;;;;;6081795;23;20107;-74
2022/09/17 08:38:33;;;;;;;0.93;0.60;;;11.20;99.90;;;;;;6060910;23;20445;-75
2022/09/17 08:41:10;;;;;;;0.77;0.45;;;11.30;99.90;;;;;;6086387;23;20061;-74
2022/09/17 08:44:24;;;;;;;2.42;0.98;;;11.50;99.90;;;;;;6111033;23;20121;-74
2022/09/17 08:46:52;;;;;;;;;;;11.70;99.90;;;;;;5991444;23;20035;-75
2022/09/17 08:49:41;;;;;;;2.70;0.95;;;11.70;99.90;;;;;;5944706;23;19993;-74
2022/09/17 08:52:35;;;;;;;2.33;0.82;;;11.90;99.90;;;;;;6057644;23;20393;-75
2022/09/17 08:55:10;;;;;;;;;;;11.90;99.90;;;;;;6089130;23;20022;-75
2022/09/17 08:57:59;;;;;;;2.33;0.60;;;12.00;99.90;;;;;;6109940;23;19917;-75
2022/09/17 09:00:26;;;;;;;3.05;0.63;;;12.10;99.90;;;;;;6083840;23;20072;-73
2022/09/17 09:02:54;;;;;;;3.00;0.98;;;12.30;99.80;;;;;;6083909;23;20033;-74
2022/09/17 09:05:32;;;;;;;2.55;0.52;;;12.40;99.90;;;;;;6109505;23;20022;-74
2022/09/17 09:08:09;;;;;;;4.07;1.20;;;12.50;99.70;;;;;;6083876;23;20028;-74
2022/09/17 09:11:00;;;;;;;1.38;0.60;;;12.50;99.60;;;;;;6083489;23;20113;-73
2022/09/17 09:13:35;;;;;;;1.13;0.57;;;12.60;99.70;;;;;;6079249;23;20100;-74
2022/09/17 09:16:05;;;;;;;0.75;0.47;;;12.70;99.80;;;;;;6077698;23;20044;-74
2022/09/17 09:18:36;;;;;;;1.27;0.65;;;12.80;99.10;;;;;;6075876;23;20109;-74
2022/09/17 09:21:12;;;;;;;1.88;0.68;;;12.90;99.00;;;;;;6077541;23;20028;-74
2022/09/17 09:23:55;;;;;;;1.15;0.52;;;13.00;98.50;;;;;;6103814;23;20226;-74
2022/09/17 09:26:22;;;;;;;;;;;13.00;98.60;;;;;;6078882;23;20108;-73
2022/09/17 09:29:24;;;;;;;1.65;0.60;;;13.00;99.00;;;;;;6078285;23;19949;-74
2022/09/17 09:32:24;;;;;;;1.75;0.50;;;13.10;98.40;;;;;;6038731;23;20029;-74
2022/09/17 09:34:51;;;;;;;1.15;0.60;;;13.10;98.80;;;;;;6104640;23;20026;-74
2022/09/17 09:37:26;;;;;;;1.05;0.50;;;13.20;98.60;;;;;;6081041;23;20122;-74
2022/09/17 09:39:54;;;;;;;1.88;0.63;;;13.30;98.80;;;;;;6082301;23;20105;-74
2022/09/17 09:42:32;;;;;;;0.90;0.60;;;13.40;99.10;;;;;;6058071;23;20097;-74
2022/09/17 09:45:00;;;;;;;1.02;0.40;;;13.30;98.60;;;;;;6081327;23;20036;-74
2022/09/17 09:48:04;;;;;;;1.27;0.52;;;13.40;99.00;;;;;;6059041;23;20025;-74
2022/09/17 09:50:56;;;;;;;2.58;0.85;;;13.50;98.90;;;;;;6057426;23;20558;-74
2022/09/17 09:53:38;;;;;;;1.20;0.45;;;13.60;98.70;;;;;;6083425;23;20041;-74
2022/09/17 09:56:28;;;;;;;2.05;0.75;;;13.70;98.60;;;;;;6107422;23;20032;-73
2022/09/17 09:58:55;;;;;;;1.13;0.47;;;13.70;98.20;;;;;;6058687;23;20044;-74
2022/09/17 10:01:24;;;;;;;1.52;0.52;;;13.70;98.20;;;;;;6057275;23;20101;-73
2022/09/17 10:03:52;;;;;;;1.45;0.60;;;13.80;98.10;;;;;;6081335;23;20056;-74
2022/09/17 10:06:19;;;;;;;1.10;0.65;;;13.80;98.20;;;;;;6081259;23;20399;-74
2022/09/17 10:08:49;;;;;;;0.65;0.30;;;13.90;97.80;;;;;;6080826;23;20028;-74
2022/09/17 10:11:20;;;;;;;1.02;0.40;;;13.80;97.30;;;;;;6080930;23;20401;-74
2022/09/17 10:13:47;;;;;;;1.50;0.63;;;13.90;97.30;;;;;;6080340;23;20100;-74
2022/09/17 10:16:24;;;;;;;0.85;0.28;;;14.00;97.60;;;;;;6058244;23;20137;-74
2022/09/17 10:19:06;;;;;;;1.48;0.40;;;14.00;97.00;;;;;;6081424;23;20028;-74
2022/09/17 10:21:40;;;;;;;2.17;0.55;;;14.20;97.10;;;;;;6106311;23;20459;-73
2022/09/17 10:24:40;;;;;;;2.80;0.68;;;14.30;97.50;;;;;;6057462;23;20018;-74
2022/09/17 10:27:12;;;;;;;0.52;0.35;;;14.30;96.10;;;;;;6103344;23;20086;-73
2022/09/17 10:29:46;;;;;;;1.20;0.60;;;14.30;96.40;;;;;;6083343;23;20419;-75
2022/09/17 10:32:15;;;;;;;1.08;0.40;;;14.40;96.30;;;;;;6081140;23;20343;-73
2022/09/17 10:34:55;;;;;;;1.00;0.50;;;14.50;96.30;;;;;;6077568;23;20680;-73
2022/09/17 10:37:41;;;;;;;0.85;0.52;;;14.50;96.50;;;;;;6080786;23;20738;-73
2022/09/17 10:40:17;;;;;;;3.75;1.10;;;14.50;96.70;;;;;;6082081;23;20026;-73
2022/09/17 10:43:10;;;;;;;2.05;0.60;;;14.60;96.30;;;;;;6107349;23;20029;-72
2022/09/17 10:45:39;;;;;;;1.00;0.35;;;14.60;96.40;;;;;;6080653;23;20462;-73
2022/09/17 10:48:14;;;;;;;0.45;0.40;;;14.60;96.40;;;;;;6057743;23;20025;-73
2022/09/17 10:50:41;;;;;;;2.53;0.75;;;14.70;96.50;;;;;;6057293;23;20198;-73
2022/09/17 10:53:17;;;;;;;0.85;0.40;;;14.60;96.50;;;;;;6081306;23;20030;-74
2022/09/17 10:56:12;;;;;;;1.67;0.50;;;14.80;96.20;;;;;;6081407;23;20026;-73
2022/09/17 10:59:17;;;;;;;1.08;0.52;;;14.90;96.30;;;;;;6079898;23;20041;-73
2022/09/17 11:02:21;;;;;;;2.75;0.70;;;15.00;95.90;;;;;;5978850;23;20601;-74
2022/09/17 11:04:59;;;;;;;2.10;0.77;;;15.10;95.90;;;;;;6106029;23;20026;-72
2022/09/17 11:08:03;;;;;;;1.20;0.63;;;15.10;95.90;;;;;;6080555;23;20287;-73
2022/09/17 11:10:49;;;;;;;2.30;0.70;;;15.10;95.80;;;;;;6084461;23;20030;-74
2022/09/17 11:13:37;;;;;;;1.23;0.60;;;15.20;95.50;;;;;;6081335;23;20174;-73
2022/09/17 11:16:30;;;;;;;0.90;0.50;;;15.30;95.80;;;;;;6081081;23;20060;-74
2022/09/17 11:19:17;;;;;;;1.17;0.50;;;15.30;95.50;;;;;;6057735;23;20030;-74
2022/09/17 11:21:49;;;;;;;0.73;0.30;;;15.50;95.70;;;;;;6106460;23;20030;-75
2022/09/17 11:24:47;;;;;;;1.63;0.40;;;15.70;95.10;;;;;;6081598;23;20029;-75
2022/09/17 11:27:38;;;;;;;2.55;0.50;;;15.80;95.00;;;;;;6076268;23;20050;-73
2022/09/17 11:30:13;;;;;;;1.55;0.55;;;16.00;94.80;;;;;;6108028;23;20041;-73
2022/09/17 11:33:13;;;;;;;0.77;0.38;;;16.20;94.60;;;;;;6078875;23;20576;-73
2022/09/17 11:35:47;;;;;;;0.32;0.32;;;16.40;94.50;;;;;;6102531;23;20048;-73
2022/09/17 11:38:19;;;;;;;1.15;0.45;;;16.60;94.10;;;;;;6082295;23;20026;-73
2022/09/17 11:40:59;;;;;;;0.47;0.30;;;16.70;94.70;;;;;;6083061;23;20195;-72
2022/09/17 11:43:37;;;;;;;0.98;0.55;;;17.00;93.90;;;;;;6083720;23;20026;-73
2022/09/17 11:46:21;;;;;;;0.70;0.45;;;17.20;93.60;;;;;;6082054;23;20498;-73
2022/09/17 11:48:59;;;;;;;1.17;0.70;;;17.40;93.50;;;;;;6080812;23;20096;-73
2022/09/17 11:51:41;;;;;;;1.15;0.60;;;17.50;93.40;;;;;;6080473;23;20061;-74
2022/09/17 11:54:42;;;;;;;1.00;0.70;;;17.50;93.10;;;;;;6080075;23;20026;-74
2022/09/17 11:57:12;;;;;;;2.00;0.60;;;17.60;92.90;;;;;;6081313;23;20032;-74
2022/09/17 11:59:45;;;;;;;1.10;0.65;;;17.60;92.70;;;;;;6058321;23;20320;-73
2022/09/17 12:02:35;;;;;;;1.92;0.60;;;17.50;92.50;;;;;;6105830;23;20030;-73
2022/09/17 12:05:06;;;;;;;2.15;0.60;;;17.60;92.20;;;;;;6091386;23;20041;-74
2022/09/17 12:07:52;;;;;;;1.20;0.63;;;17.80;92.70;;;;;;6081304;23;20032;-74
2022/09/17 12:10:31;;;;;;;0.95;0.70;;;17.90;92.40;;;;;;6108257;23;20026;-74
2022/09/17 12:13:32;;;;;;;1.02;0.47;;;18.00;92.10;;;;;;6109669;23;20026;-74
2022/09/17 12:16:32;;;;;;;0.70;0.43;;;18.30;92.00;;;;;;6085122;23;20057;-73
2022/09/17 12:19:24;;;;;;;1.48;0.65;;;18.40;91.80;;;;;;6082746;23;20049;-74
2022/09/17 12:21:56;;;;;;;0.63;0.50;;;18.70;91.40;;;;;;6084214;23;20341;-74
2022/09/17 12:24:27;;;;;;;1.40;0.80;;;18.70;91.20;;;;;;6084945;23;20022;-74
2022/09/17 12:27:15;;;;;;;0.88;0.50;;;18.70;91.70;;;;;;6084855;23;20029;-74
2022/09/17 12:29:57;;;;;;;0.80;0.60;;;18.90;91.50;;;;;;6085041;23;20022;-74
2022/09/17 12:32:33;;;;;;;0.55;0.50;;;19.30;90.40;;;;;;6110542;23;20025;-74
2022/09/17 12:35:35;;;;;;;1.35;0.50;;;19.10;90.00;;;;;;6081317;23;20026;-74
2022/09/17 12:38:26;;;;;;;0.88;0.47;;;19.40;90.20;;;;;;6089033;23;20026;-75
2022/09/17 12:41:20;;;;;;;1.25;0.88;;;19.80;89.40;;;;;;6084531;23;20025;-74
2022/09/17 12:44:18;;;;;;;1.15;0.60;;;19.80;88.00;;;;;;6041655;23;20485;-74
2022/09/17 12:47:04;;;;;;;2.10;0.50;;;19.10;88.00;;;;;;6087917;23;20026;-74
2022/09/17 12:49:40;;;;;;;1.17;0.65;;;19.30;89.00;;;;;;6084753;23;20026;-74
2022/09/17 12:52:14;;;;;;;2.88;0.88;;;19.50;88.40;;;;;;6083891;23;20030;-74
2022/09/17 12:55:09;;;;;;;1.38;0.65;;;19.60;87.20;;;;;;6084494;23;20022;-74
2022/09/17 12:58:01;;;;;;;1.50;0.77;;;19.60;88.10;;;;;;6056462;23;20409;-75
2022/09/17 13:00:28;;;;;;;0.45;0.40;;;20.10;87.60;;;;;;6110120;23;20034;-73
2022/09/17 13:03:06;;;;;;;0.93;0.77;;;20.20;86.50;;;;;;6083769;23;20489;-74
2022/09/17 13:06:01;;;;;;;1.38;0.50;;;20.10;85.00;;;;;;6082970;23;20025;-74
2022/09/17 13:08:46;;;;;;;1.42;0.55;;;20.20;86.30;;;;;;6083201;23;20056;-74
2022/09/17 13:11:20;;;;;;;0.40;0.40;;;20.20;84.50;;;;;;6110796;23;20026;-74
2022/09/17 13:14:06;;;;;;;0.68;0.52;;;20.60;85.30;;;;;;6085393;23;20022;-74
2022/09/17 13:16:51;;;;;;;0.85;0.73;;;20.60;84.40;;;;;;6086943;23;20022;-74
2022/09/17 13:19:28;;;;;;;1.38;0.60;;;20.60;82.30;;;;;;6086046;23;20018;-74
2022/09/17 13:22:16;;;;;;;1.65;0.60;;;20.40;83.80;;;;;;6084012;23;20041;-74
2022/09/17 13:24:44;;;;;;;1.40;0.80;;;20.60;83.60;;;;;;6110991;23;20404;-74
2022/09/17 13:27:21;;;;;;;0.70;0.40;;;20.50;82.30;;;;;;6085330;23;20026;-73
2022/09/17 13:29:54;;;;;;;2.03;0.45;;;19.90;83.00;;;;;;6084970;23;20350;-74